createdAt,value
2019-05-20T00:01:51.128Z,11.10
2019-05-20T00:04:21.732Z,11.60
2019-05-20T00:06:52.356Z,11.90
2019-05-20T00:09:22.967Z,11.23
2019-05-20T00:11:53.885Z,11.33
2019-05-20T00:14:25.619Z,11.67
2019-05-20T00:16:56.332Z,11.10
2019-05-20T00:19:26.967Z,11.30
2019-05-20T00:21:57.675Z,11.97
2019-05-20T00:24:28.261Z,12.67
2019-05-20T00:26:59.964Z,12.53
2019-05-20T00:29:30.613Z,11.67
2019-05-20T00:32:01.447Z,12.67
2019-05-20T00:34:35.258Z,12.33
2019-05-20T00:37:08.738Z,12.63
2019-05-20T00:39:39.404Z,13.77
2019-05-20T00:42:10.136Z,13.80
2019-05-20T00:44:41.859Z,14.87
2019-05-20T00:47:12.539Z,15.50
2019-05-20T00:49:43.078Z,16.17
2019-05-20T00:52:13.769Z,15.47
2019-05-20T00:54:44.510Z,15.97
2019-05-20T00:57:16.193Z,17.13
2019-05-20T00:59:46.777Z,17.47
2019-05-20T01:02:22.442Z,17.40
2019-05-20T01:04:53.037Z,17.20
2019-05-20T01:07:28.718Z,18.30
2019-05-20T01:09:59.336Z,18.23
2019-05-20T01:12:30.024Z,19.43
2019-05-20T01:15:00.678Z,19.07
2019-05-20T01:17:31.335Z,20.20
2019-05-20T01:20:02.037Z,19.90
2019-05-20T01:22:32.640Z,18.50
2019-05-20T01:25:03.414Z,19.37
2019-05-20T01:27:44.021Z,19.37
2019-05-20T01:30:15.022Z,19.17
2019-05-20T01:32:45.622Z,18.63
2019-05-20T01:35:16.222Z,21.23
2019-05-20T01:37:46.874Z,20.50
2019-05-20T01:40:17.772Z,20.33
2019-05-20T01:42:50.358Z,21.13
2019-05-20T01:45:20.977Z,20.10
2019-05-20T01:47:51.669Z,22.13
2019-05-20T01:50:22.347Z,27.77
2019-05-20T01:52:53.020Z,29.03
2019-05-20T01:55:23.677Z,27.37
2019-05-20T01:57:56.295Z,29.23
2019-05-20T02:00:26.906Z,29.87
2019-05-20T02:02:57.794Z,29.50
2019-05-20T02:05:29.226Z,30.10
2019-05-20T02:07:59.996Z,31.27
2019-05-20T02:10:34.543Z,32.77
2019-05-20T02:13:06.792Z,33.90
2019-05-20T02:15:52.876Z,35.07
2019-05-20T02:18:25.196Z,34.97
2019-05-20T02:20:57.466Z,31.53
2019-05-20T02:23:29.726Z,31.63
2019-05-20T02:26:02.007Z,31.23
2019-05-20T02:28:34.169Z,31.53
2019-05-20T02:31:06.608Z,32.40
2019-05-20T02:33:51.072Z,32.83
2019-05-20T02:36:12.881Z,31.57
2019-05-20T02:38:45.364Z,32.97
2019-05-20T02:41:17.606Z,33.23
2019-05-20T02:43:50.195Z,34.87
2019-05-20T02:46:21.697Z,36.50
2019-05-20T02:48:54.915Z,36.17
2019-05-20T02:51:33.263Z,37.00
2019-05-20T02:54:06.068Z,38.20
2019-05-20T02:56:39.478Z,37.43
2019-05-20T02:59:11.056Z,37.47
2019-05-20T03:01:41.826Z,38.77
2019-05-20T03:04:13.245Z,38.17
2019-05-20T03:06:44.098Z,40.40
2019-05-20T03:09:14.741Z,38.37
2019-05-20T03:11:45.517Z,37.20
2019-05-20T03:14:17.086Z,38.27
2019-05-20T03:16:51.485Z,36.13
2019-05-20T03:19:22.965Z,35.13
2019-05-20T03:21:54.216Z,35.63
2019-05-20T03:24:26.463Z,36.90
2019-05-20T03:26:58.210Z,38.17
2019-05-20T03:29:29.411Z,37.13
2019-05-20T03:32:00.933Z,36.73
2019-05-20T03:34:47.969Z,35.50
2019-05-20T03:37:07.288Z,33.80
2019-05-20T03:39:39.207Z,35.13
2019-05-20T03:42:10.360Z,33.93
2019-05-20T03:44:41.512Z,35.20
2019-05-20T03:47:12.167Z,36.07
2019-05-20T03:49:43.056Z,37.03
2019-05-20T03:52:13.893Z,38.40
2019-05-20T03:54:44.746Z,34.70
2019-05-20T03:57:17.603Z,37.20
2019-05-20T03:59:49.375Z,38.67
2019-05-20T04:02:22.217Z,39.10
2019-05-20T04:05:02.451Z,37.77
2019-05-20T04:07:31.325Z,38.50
2019-05-20T04:10:03.208Z,39.03
2019-05-20T04:12:33.907Z,36.97
2019-05-20T04:15:12.377Z,36.67
2019-05-20T04:17:43.326Z,37.90
2019-05-20T04:20:15.350Z,40.17
2019-05-20T04:22:47.186Z,41.73
2019-05-20T04:25:17.867Z,38.83
2019-05-20T04:27:50.542Z,39.63
2019-05-20T04:30:21.348Z,39.37
2019-05-20T04:32:53.998Z,36.97
2019-05-20T04:35:25.136Z,37.00
2019-05-20T04:37:55.876Z,38.87
2019-05-20T04:40:26.533Z,36.93
2019-05-20T04:42:57.163Z,37.80
2019-05-20T04:45:27.980Z,38.13
2019-05-20T04:47:58.713Z,35.47
2019-05-20T04:50:32.747Z,35.27
2019-05-20T04:53:10.032Z,35.83
2019-05-20T04:55:40.632Z,34.23
2019-05-20T04:58:11.194Z,33.80
2019-05-20T05:00:55.484Z,35.23
2019-05-20T05:03:32.215Z,33.97
2019-05-20T05:06:03.965Z,32.80
2019-05-20T05:08:34.669Z,33.30
2019-05-20T05:11:07.323Z,34.27
2019-05-20T05:13:46.352Z,35.10
2019-05-20T05:16:22.539Z,35.30
2019-05-20T05:19:08.532Z,37.33
2019-05-20T05:21:39.172Z,37.27
2019-05-20T05:24:09.856Z,36.60
2019-05-20T05:26:49.871Z,37.63
2019-05-20T05:29:25.417Z,38.33
2019-05-20T05:32:04.229Z,38.10
2019-05-20T05:34:34.863Z,38.80
2019-05-20T05:37:05.489Z,40.63
2019-05-20T05:39:39.310Z,43.40
2019-05-20T05:42:09.932Z,44.13
2019-05-20T05:44:45.507Z,38.27
2019-05-20T05:47:21.248Z,38.53
2019-05-20T05:49:51.835Z,36.90
2019-05-20T05:52:23.069Z,36.27
2019-05-20T05:54:53.759Z,35.13
2019-05-20T05:57:24.463Z,35.43
2019-05-20T05:59:57.134Z,34.50
2019-05-20T06:02:27.804Z,33.50
2019-05-20T06:04:58.370Z,32.83
2019-05-20T06:07:29.109Z,29.80
2019-05-20T06:09:59.679Z,30.53
2019-05-20T06:12:51.668Z,30.80
2019-05-20T06:15:24.375Z,30.63
2019-05-20T06:17:55.162Z,29.90
2019-05-20T06:20:26.863Z,27.77
2019-05-20T06:22:57.543Z,29.40
2019-05-20T06:25:28.264Z,28.93
2019-05-20T06:28:07.992Z,29.40
2019-05-20T06:30:42.204Z,28.37
2019-05-20T06:33:12.867Z,29.70
2019-05-20T06:35:43.474Z,30.33
2019-05-20T06:38:17.808Z,28.30
2019-05-20T06:40:48.400Z,28.00
2019-05-20T06:43:24.072Z,30.17
2019-05-20T06:45:54.682Z,29.50
2019-05-20T06:48:29.975Z,27.83
2019-05-20T06:51:00.709Z,27.30
2019-05-20T06:53:31.414Z,27.93
2019-05-20T06:56:05.225Z,27.30
2019-05-20T06:58:35.962Z,26.30
2019-05-20T07:01:06.708Z,25.87
2019-05-20T07:03:37.478Z,26.00
2019-05-20T07:06:08.220Z,27.30
2019-05-20T07:08:38.929Z,27.13
2019-05-20T07:11:09.713Z,29.37
2019-05-20T07:13:40.472Z,27.10
2019-05-20T07:16:12.557Z,28.53
2019-05-20T07:18:43.563Z,28.23
2019-05-20T07:21:18.230Z,28.17
2019-05-20T07:23:52.276Z,27.63
2019-05-20T07:26:21.812Z,27.20
2019-05-20T07:28:53.097Z,27.80
2019-05-20T07:31:35.198Z,25.97
2019-05-20T07:34:06.203Z,26.43
2019-05-20T07:36:37.957Z,26.07
2019-05-20T07:39:08.719Z,26.30
2019-05-20T07:41:41.736Z,27.93
2019-05-20T07:44:12.870Z,25.70
2019-05-20T07:46:43.668Z,27.30
2019-05-20T07:49:15.686Z,26.83
2019-05-20T07:51:46.560Z,26.90
2019-05-20T07:54:20.277Z,24.90
2019-05-20T07:57:12.171Z,25.93
2019-05-20T07:59:43.174Z,25.47
2019-05-20T08:02:13.901Z,26.43
2019-05-20T08:04:47.919Z,25.30
2019-05-20T08:07:29.776Z,26.13
2019-05-20T08:09:52.104Z,25.70
2019-05-20T08:12:23.610Z,25.33
2019-05-20T08:14:54.389Z,25.07
2019-05-20T08:17:28.340Z,25.87
2019-05-20T08:19:59.297Z,27.23
2019-05-20T08:22:33.240Z,26.33
2019-05-20T08:25:04.529Z,26.23
2019-05-20T08:27:35.328Z,25.43
2019-05-20T08:30:06.841Z,26.70
2019-05-20T08:32:37.591Z,27.93
2019-05-20T08:35:08.657Z,27.43
2019-05-20T08:37:45.405Z,26.93
2019-05-20T08:40:17.972Z,26.80
2019-05-20T08:43:04.968Z,23.13
2019-05-20T08:45:35.909Z,24.53
2019-05-20T08:48:22.933Z,25.10
2019-05-20T08:50:53.771Z,24.53
2019-05-20T08:53:24.472Z,25.17
2019-05-20T08:55:55.289Z,26.30
2019-05-20T08:58:36.711Z,25.47
2019-05-20T09:01:10.441Z,25.10
2019-05-20T09:03:41.668Z,26.47
2019-05-20T09:06:13.394Z,25.90
2019-05-20T09:08:45.386Z,27.47
2019-05-20T09:11:16.278Z,25.53
2019-05-20T09:13:47.135Z,25.83
2019-05-20T09:16:18.123Z,25.57
2019-05-20T09:18:48.806Z,26.00
2019-05-20T09:21:19.525Z,25.17
2019-05-20T09:23:50.186Z,25.67
2019-05-20T09:26:20.884Z,26.03
2019-05-20T09:28:51.597Z,24.17
2019-05-20T09:31:22.384Z,26.00
2019-05-20T09:33:53.301Z,25.80
2019-05-20T09:36:29.313Z,26.30
2019-05-20T09:39:00.280Z,24.20
2019-05-20T09:41:33.575Z,24.67
2019-05-20T09:44:04.520Z,23.30
2019-05-20T09:46:35.267Z,25.87
2019-05-20T09:49:07.207Z,26.20
2019-05-20T09:51:37.889Z,25.37
2019-05-20T09:54:08.645Z,24.70
2019-05-20T09:56:39.409Z,27.30
2019-05-20T09:59:10.095Z,26.40
2019-05-20T10:01:40.831Z,28.33
2019-05-20T10:04:11.494Z,27.97
2019-05-20T10:06:42.259Z,26.43
2019-05-20T10:09:13.055Z,27.03
2019-05-20T10:11:43.730Z,27.37
2019-05-20T10:14:14.467Z,26.87
2019-05-20T10:16:45.221Z,26.43
2019-05-20T10:19:15.974Z,25.60
2019-05-20T10:21:46.853Z,26.97
2019-05-20T10:24:17.513Z,25.63
2019-05-20T10:27:00.266Z,25.53
2019-05-20T10:29:33.239Z,27.13
2019-05-20T10:32:11.139Z,27.37
2019-05-20T10:34:47.799Z,28.37
2019-05-20T10:37:25.988Z,27.37
2019-05-20T10:39:59.031Z,27.70
2019-05-20T10:42:29.835Z,28.67
2019-05-20T10:45:06.244Z,27.20
2019-05-20T10:47:36.973Z,27.03
2019-05-20T10:50:07.951Z,30.40
2019-05-20T10:52:38.622Z,30.63
2019-05-20T10:55:09.570Z,29.77
2019-05-20T10:57:40.495Z,30.47
2019-05-20T11:00:11.522Z,28.27
2019-05-20T11:02:49.247Z,28.10
2019-05-20T11:05:45.635Z,29.00
2019-05-20T11:08:16.386Z,30.50
2019-05-20T11:10:47.155Z,28.77
2019-05-20T11:13:17.889Z,29.10
2019-05-20T11:15:48.765Z,29.10
2019-05-20T11:18:19.573Z,29.70
2019-05-20T11:20:50.238Z,27.83
2019-05-20T11:23:20.934Z,31.40
2019-05-20T11:25:53.610Z,31.77
2019-05-20T11:28:24.449Z,31.17
2019-05-20T11:30:55.340Z,31.30
2019-05-20T11:33:26.111Z,30.97
2019-05-20T11:35:56.885Z,29.37
2019-05-20T11:38:27.793Z,30.20
2019-05-20T11:40:58.552Z,28.40
2019-05-20T11:43:29.299Z,29.63
2019-05-20T11:46:01.021Z,29.10
2019-05-20T11:48:32.676Z,28.67
2019-05-20T11:51:03.525Z,28.83
2019-05-20T11:53:34.892Z,29.33
2019-05-20T11:56:05.854Z,30.30
2019-05-20T11:58:41.355Z,30.83
2019-05-20T12:01:13.226Z,31.80
2019-05-20T12:03:43.941Z,32.23
2019-05-20T12:06:23.554Z,35.63
2019-05-20T12:09:06.927Z,32.97
2019-05-20T12:11:37.802Z,34.40
2019-05-20T12:14:08.579Z,32.77
2019-05-20T12:16:40.234Z,32.13
2019-05-20T12:19:11.060Z,32.43
2019-05-20T12:21:41.867Z,30.70
2019-05-20T12:24:12.536Z,33.57
2019-05-20T12:26:43.314Z,33.97
2019-05-20T12:29:14.161Z,34.17
2019-05-20T12:31:44.934Z,33.07
2019-05-20T12:34:15.859Z,33.97
2019-05-20T12:36:47.708Z,33.83
2019-05-20T12:39:18.801Z,32.70
2019-05-20T12:41:50.020Z,32.37
2019-05-20T12:44:20.928Z,31.80
2019-05-20T12:46:52.620Z,33.07
2019-05-20T12:49:23.638Z,31.80
2019-05-20T12:52:01.744Z,34.70
2019-05-20T12:54:32.410Z,32.57
2019-05-20T12:57:03.299Z,32.70
2019-05-20T12:59:34.131Z,33.67
2019-05-20T13:02:11.175Z,31.33
2019-05-20T13:04:53.864Z,31.13
2019-05-20T13:07:25.760Z,30.03
2019-05-20T13:09:56.995Z,31.60
2019-05-20T13:12:29.738Z,33.33
2019-05-20T13:15:00.422Z,33.40
2019-05-20T13:17:32.406Z,32.73
2019-05-20T13:20:09.377Z,32.30
2019-05-20T13:22:41.577Z,31.83
2019-05-20T13:25:12.641Z,32.60
2019-05-20T13:27:44.544Z,35.30
2019-05-20T13:30:17.239Z,33.73
2019-05-20T13:32:48.017Z,33.23
2019-05-20T13:35:24.528Z,33.73
2019-05-20T13:37:56.276Z,33.17
2019-05-20T13:40:42.948Z,35.13
2019-05-20T13:43:05.995Z,34.73
2019-05-20T13:45:40.047Z,35.17
2019-05-20T13:48:11.785Z,34.30
2019-05-20T13:51:02.722Z,34.63
2019-05-20T13:53:33.513Z,35.47
2019-05-20T13:56:11.984Z,37.23
2019-05-20T13:58:42.727Z,38.10
2019-05-20T14:01:20.078Z,38.30
2019-05-20T14:03:57.111Z,39.33
2019-05-20T14:06:29.402Z,38.17
2019-05-20T14:09:00.259Z,39.20
2019-05-20T14:11:34.487Z,38.13
2019-05-20T14:14:04.576Z,37.23
2019-05-20T14:16:40.436Z,37.13
2019-05-20T14:19:15.463Z,38.03
2019-05-20T14:21:50.518Z,37.13
2019-05-20T14:24:21.263Z,36.17
2019-05-20T14:26:52.343Z,33.87
2019-05-20T14:29:24.036Z,36.07
2019-05-20T14:31:58.518Z,34.60
2019-05-20T14:34:29.301Z,34.90
2019-05-20T14:37:00.223Z,32.07
2019-05-20T14:39:32.063Z,33.23
2019-05-20T14:42:03.032Z,31.80
2019-05-20T14:44:33.879Z,30.33
2019-05-20T14:47:04.785Z,31.37
2019-05-20T14:49:35.456Z,30.93
2019-05-20T14:52:06.453Z,29.23
2019-05-20T14:54:44.188Z,30.87
2019-05-20T14:57:26.098Z,30.67
2019-05-20T15:00:03.076Z,32.27
2019-05-20T15:02:37.824Z,36.90
2019-05-20T15:05:23.013Z,36.07
2019-05-20T15:07:54.081Z,34.03
2019-05-20T15:10:25.922Z,34.37
2019-05-20T15:12:56.688Z,31.97
2019-05-20T15:15:30.673Z,32.60
2019-05-20T15:18:03.574Z,33.00
2019-05-20T15:20:44.934Z,32.77
2019-05-20T15:23:15.649Z,31.87
2019-05-20T15:25:52.031Z,31.50
2019-05-20T15:28:22.719Z,32.23
2019-05-20T15:30:54.543Z,32.23
2019-05-20T15:33:25.405Z,32.30
2019-05-20T15:35:58.724Z,34.37
2019-05-20T15:38:31.028Z,32.60
2019-05-20T15:41:05.742Z,34.77
2019-05-20T15:43:38.296Z,32.10
2019-05-20T15:46:23.566Z,34.20
2019-05-20T15:49:00.672Z,33.83
2019-05-20T15:51:40.873Z,34.10
2019-05-20T15:54:13.753Z,36.40
2019-05-20T15:56:44.376Z,36.73
2019-05-20T15:59:20.861Z,38.13
2019-05-20T16:01:58.948Z,38.00
2019-05-20T16:04:36.594Z,37.30
2019-05-20T16:07:08.309Z,37.97
2019-05-20T16:09:40.007Z,36.53
2019-05-20T16:12:12.610Z,37.77
2019-05-20T16:14:51.601Z,37.43
2019-05-20T16:17:22.540Z,36.97
2019-05-20T16:19:53.344Z,37.33
2019-05-20T16:22:31.521Z,37.27
2019-05-20T16:25:09.597Z,38.17
2019-05-20T16:27:40.552Z,37.97
2019-05-20T16:30:12.442Z,36.40
2019-05-20T16:32:43.429Z,36.47
2019-05-20T16:35:15.577Z,37.90
2019-05-20T16:37:46.245Z,38.37
2019-05-20T16:40:17.029Z,36.33
2019-05-20T16:42:53.001Z,35.20
2019-05-20T16:45:32.567Z,35.53
2019-05-20T16:48:04.338Z,35.43
2019-05-20T16:50:45.536Z,34.40
2019-05-20T16:53:16.263Z,35.57
2019-05-20T16:55:52.698Z,34.37
2019-05-20T16:58:28.329Z,35.60
2019-05-20T17:00:59.085Z,34.20
2019-05-20T17:03:33.232Z,35.93
2019-05-20T17:06:03.945Z,34.23
2019-05-20T17:08:34.629Z,32.73
2019-05-20T17:11:05.432Z,34.33
2019-05-20T17:13:36.067Z,34.40
2019-05-20T17:16:07.659Z,33.33
2019-05-20T17:18:39.434Z,32.87
2019-05-20T17:21:12.068Z,33.33
2019-05-20T17:23:47.559Z,32.63
2019-05-20T17:26:21.051Z,32.37
2019-05-20T17:28:53.779Z,32.47
2019-05-20T17:31:26.750Z,34.27
2019-05-20T17:33:58.215Z,32.07
2019-05-20T17:36:29.037Z,32.47
2019-05-20T17:39:02.982Z,34.10
2019-05-20T17:41:33.962Z,32.47
2019-05-20T17:44:04.958Z,32.20
2019-05-20T17:46:35.958Z,31.50
2019-05-20T17:49:07.597Z,32.83
2019-05-20T17:51:38.262Z,31.07
2019-05-20T17:54:09.045Z,32.17
2019-05-20T17:56:40.467Z,30.73
2019-05-20T17:59:13.221Z,33.23
2019-05-20T18:01:43.905Z,32.10
2019-05-20T18:04:16.663Z,30.43
2019-05-20T18:10:16.417Z,29.47
2019-05-20T18:16:09.093Z,30.37
2019-05-20T18:18:41.933Z,31.53
2019-05-20T18:21:15.174Z,29.23
2019-05-20T18:23:48.673Z,28.67
2019-05-20T18:26:20.138Z,29.13
2019-05-20T18:28:51.093Z,28.47
2019-05-20T18:31:32.138Z,27.63
2019-05-20T18:33:54.556Z,29.07
2019-05-20T18:36:25.219Z,27.97
2019-05-20T18:38:56.193Z,28.77
2019-05-20T18:41:27.615Z,28.77
2019-05-20T18:43:59.492Z,25.90
2019-05-20T18:46:31.297Z,28.20
2019-05-20T18:49:03.578Z,27.87
2019-05-20T18:51:34.257Z,27.80
2019-05-20T18:54:06.035Z,28.23
2019-05-20T18:56:38.108Z,27.47
2019-05-20T18:59:09.624Z,28.13
2019-05-20T19:02:02.337Z,28.60
2019-05-20T19:04:20.228Z,27.53
2019-05-20T19:06:51.045Z,29.10
2019-05-20T19:09:24.157Z,28.90
2019-05-20T19:11:56.063Z,30.10
2019-05-20T19:14:27.108Z,30.00
2019-05-20T19:16:59.056Z,30.93
2019-05-20T19:19:33.398Z,30.87
2019-05-20T19:22:07.449Z,30.23
2019-05-20T19:24:38.217Z,32.13
2019-05-20T19:27:09.009Z,30.50
2019-05-20T19:29:41.649Z,30.10
2019-05-20T19:32:14.113Z,30.87
2019-05-20T19:34:47.214Z,31.50
2019-05-20T19:37:23.746Z,31.53
2019-05-20T19:40:00.937Z,33.43
2019-05-20T19:42:38.050Z,32.17
2019-05-20T19:45:15.233Z,33.47
2019-05-20T19:47:49.933Z,32.13
2019-05-20T19:50:20.627Z,32.37
2019-05-20T19:52:54.903Z,32.50
2019-05-20T19:55:40.202Z,33.43
2019-05-20T19:58:11.951Z,33.17
2019-05-20T20:00:43.498Z,33.67
2019-05-20T20:03:14.480Z,32.70
2019-05-20T20:05:56.372Z,32.97
2019-05-20T20:08:28.320Z,33.40
2019-05-20T20:11:06.243Z,33.20
2019-05-20T20:13:40.296Z,33.03
2019-05-20T20:16:17.373Z,33.33
2019-05-20T20:18:45.270Z,34.07
2019-05-20T20:21:16.637Z,33.27
2019-05-20T20:23:52.411Z,34.23
2019-05-20T20:26:27.108Z,35.23
2019-05-20T20:28:59.021Z,34.70
2019-05-20T20:31:29.627Z,36.37
2019-05-20T20:34:05.723Z,35.00
2019-05-20T20:36:46.186Z,35.07
2019-05-20T20:39:21.518Z,36.03
2019-05-20T20:41:59.185Z,37.03
2019-05-20T20:44:30.525Z,35.03
2019-05-20T20:47:42.483Z,34.33
2019-05-20T20:50:13.622Z,34.20
2019-05-20T20:52:45.927Z,35.77
2019-05-20T20:55:16.982Z,37.20
2019-05-20T20:57:47.656Z,34.30
2019-05-20T21:00:19.656Z,34.83
2019-05-20T21:02:53.467Z,34.27
2019-05-20T21:05:23.028Z,33.13
2019-05-20T21:07:54.827Z,33.33
2019-05-20T21:10:26.027Z,29.73
2019-05-20T21:12:58.129Z,28.67
2019-05-20T21:15:29.870Z,28.33
2019-05-20T21:18:03.374Z,26.23
2019-05-20T21:20:35.440Z,26.20
2019-05-20T21:23:06.332Z,24.37
2019-05-20T21:25:38.239Z,23.93
2019-05-20T21:28:14.269Z,25.33
2019-05-20T21:30:47.524Z,24.47
2019-05-20T21:33:20.888Z,24.67
2019-05-20T21:36:14.593Z,26.27
2019-05-20T21:38:45.524Z,25.47
2019-05-20T21:41:16.440Z,24.13
2019-05-20T21:43:47.053Z,24.27
2019-05-20T21:46:25.934Z,23.97
2019-05-20T21:48:57.622Z,24.30
2019-05-20T21:51:35.727Z,23.20
2019-05-20T21:54:06.489Z,24.57
2019-05-20T21:56:38.000Z,25.70
2019-05-20T21:59:10.973Z,23.73
2019-05-20T22:01:42.062Z,25.03
2019-05-20T22:04:13.924Z,26.03
2019-05-20T22:06:46.059Z,25.77
2019-05-20T22:09:18.877Z,26.40
2019-05-20T22:11:52.736Z,25.40
2019-05-20T22:14:23.531Z,25.43
2019-05-20T22:16:54.813Z,25.10
2019-05-20T22:19:25.541Z,25.60
2019-05-20T22:21:57.912Z,24.13
2019-05-20T22:24:29.543Z,24.07
2019-05-20T22:27:01.266Z,26.30
2019-05-20T22:29:32.725Z,26.17
2019-05-20T22:32:03.724Z,26.50
2019-05-20T22:34:36.520Z,27.43
2019-05-20T22:37:18.861Z,27.10
2019-05-20T22:39:49.723Z,26.03
2019-05-20T22:42:20.506Z,27.50
2019-05-20T22:44:52.136Z,27.50
2019-05-20T22:47:22.804Z,26.57
2019-05-20T22:49:53.526Z,26.07
2019-05-20T22:52:24.213Z,26.53
2019-05-20T22:54:54.851Z,27.00
2019-05-20T22:57:31.980Z,28.10
2019-05-20T23:00:09.056Z,27.23
2019-05-20T23:02:42.066Z,26.80
2019-05-20T23:05:18.459Z,27.97
2019-05-20T23:07:49.666Z,32.20
2019-05-20T23:10:20.483Z,29.60
2019-05-20T23:12:51.212Z,29.67
2019-05-20T23:15:21.885Z,29.97
2019-05-20T23:17:53.322Z,27.23
2019-05-20T23:20:27.057Z,26.13
2019-05-20T23:23:07.954Z,26.60
2019-05-20T23:25:40.788Z,24.93
2019-05-20T23:28:21.054Z,26.17
2019-05-20T23:30:51.804Z,28.23
2019-05-20T23:33:22.618Z,28.03
2019-05-20T23:35:56.431Z,30.23
2019-05-20T23:38:27.006Z,27.03
2019-05-20T23:40:58.459Z,28.50
2019-05-20T23:43:30.792Z,26.13
2019-05-20T23:46:02.672Z,22.77
2019-05-20T23:48:43.544Z,21.00
2019-05-20T23:51:14.286Z,20.53
2019-05-20T23:53:45.749Z,19.30
2019-05-20T23:56:26.458Z,18.17
2019-05-20T23:58:57.499Z,16.17
